createdAt,value
2022-12-18T00:07:25.135Z,-2.64
2022-12-18T00:17:46.524Z,-2.76
2022-12-18T00:28:08.347Z,-2.88
2022-12-18T00:38:29.997Z,-2.93
2022-12-18T00:48:51.445Z,-3.02
2022-12-18T00:59:12.891Z,-3.05
2022-12-18T01:09:34.245Z,-3.20
2022-12-18T01:19:55.636Z,-3.46
2022-12-18T01:30:17.040Z,-3.58
2022-12-18T01:40:38.505Z,-3.57
2022-12-18T01:51:00.842Z,-3.66
2022-12-18T02:01:23.679Z,-3.67
2022-12-18T02:11:51.372Z,-3.77
2022-12-18T02:22:27.065Z,-3.88
2022-12-18T02:32:51.166Z,-4.05
2022-12-18T02:43:16.735Z,-3.98
2022-12-18T02:53:44.156Z,-3.99
2022-12-18T03:04:10.045Z,-4.08
2022-12-18T03:14:32.947Z,-4.08
2022-12-18T03:24:55.056Z,-4.13
2022-12-18T03:35:20.049Z,-4.21
2022-12-18T03:45:48.507Z,-4.25
2022-12-18T03:56:10.339Z,-4.28
2022-12-18T04:06:32.694Z,-4.28
2022-12-18T04:16:54.038Z,-4.46
2022-12-18T04:27:15.373Z,-4.52
2022-12-18T04:37:36.725Z,-4.57
2022-12-18T04:48:00.519Z,-4.55
2022-12-18T04:58:21.884Z,-4.52
2022-12-18T05:08:43.284Z,-4.51
2022-12-18T05:19:04.628Z,-4.50
2022-12-18T05:29:26.055Z,-4.47
2022-12-18T05:39:47.409Z,-4.50
2022-12-18T05:50:08.829Z,-4.55
2022-12-18T06:00:30.659Z,-4.57
2022-12-18T06:10:53.587Z,-4.53
2022-12-18T06:21:14.922Z,-4.52
2022-12-18T06:31:36.322Z,-4.52
2022-12-18T06:41:57.724Z,-4.61
2022-12-18T06:52:19.091Z,-4.62
2022-12-18T07:02:41.429Z,-4.58
2022-12-18T07:13:02.885Z,-4.55
2022-12-18T07:23:24.280Z,-4.54
2022-12-18T07:33:46.116Z,-4.51
2022-12-18T07:44:09.422Z,-4.56
2022-12-18T07:54:30.761Z,-4.60
2022-12-18T08:04:52.103Z,-4.53
2022-12-18T08:15:13.470Z,-4.42
2022-12-18T08:25:34.820Z,-4.32
2022-12-18T08:35:56.147Z,-4.17
2022-12-18T08:46:18.673Z,-4.08
2022-12-18T08:56:40.130Z,-3.87
2022-12-18T09:07:01.450Z,-3.65
2022-12-18T09:17:23.031Z,-3.45
2022-12-18T09:27:47.675Z,-3.29
2022-12-18T09:38:10.956Z,-3.10
2022-12-18T09:48:35.302Z,-2.90
2022-12-18T09:58:59.512Z,-2.76
2022-12-18T10:09:20.850Z,-2.57
2022-12-18T10:19:42.225Z,-2.44
2022-12-18T10:30:09.996Z,-2.29
2022-12-18T10:40:31.644Z,-2.09
2022-12-18T11:01:53.721Z,-1.70
2022-12-18T11:12:19.657Z,-1.54
2022-12-18T11:22:41.194Z,-1.44
2022-12-18T11:33:05.545Z,-1.27
2022-12-18T11:43:38.235Z,-1.12
2022-12-18T11:54:01.059Z,-0.95
2022-12-18T12:04:28.550Z,-0.88
2022-12-18T12:14:56.049Z,-0.79
2022-12-18T12:25:22.256Z,-0.73
2022-12-18T12:35:47.677Z,-0.69
2022-12-18T12:46:20.583Z,-0.65
2022-12-18T12:56:48.848Z,-0.57
2022-12-18T13:18:10.495Z,-0.52
2022-12-18T13:28:47.165Z,-0.46
2022-12-18T13:39:11.777Z,-0.43
2022-12-18T13:49:41.592Z,-0.43
2022-12-18T14:00:22.063Z,-0.46
2022-12-18T14:10:48.492Z,-0.50
2022-12-18T14:21:37.329Z,-0.50
2022-12-18T14:32:08.431Z,-0.52
2022-12-18T14:42:34.715Z,-0.58
2022-12-18T14:52:56.078Z,-0.62
2022-12-18T15:03:20.036Z,-0.67
2022-12-18T15:13:41.941Z,-0.69
2022-12-18T15:24:03.669Z,-0.65
2022-12-18T15:34:26.205Z,-0.65
2022-12-18T15:44:47.689Z,-0.64
2022-12-18T15:55:30.792Z,-0.57
2022-12-18T16:05:52.161Z,-0.52
2022-12-18T16:16:13.585Z,-0.47
2022-12-18T16:26:35.000Z,-0.45
2022-12-18T16:37:05.202Z,-0.43
2022-12-18T16:47:27.060Z,-0.42
2022-12-18T16:57:48.405Z,-0.40
2022-12-18T17:08:09.767Z,-0.34
2022-12-18T17:18:31.102Z,-0.31
2022-12-18T17:28:52.533Z,-0.25
2022-12-18T17:39:17.611Z,-0.20
2022-12-18T17:49:39.164Z,-0.12
2022-12-18T18:00:00.553Z,-0.09
2022-12-18T18:10:22.025Z,-0.02
2022-12-18T18:20:43.364Z,-0.01
2022-12-18T18:31:09.187Z,0.01
2022-12-18T18:41:31.064Z,0.11
2022-12-18T18:51:52.501Z,0.25
2022-12-18T19:02:14.584Z,0.31
2022-12-18T19:12:54.751Z,0.39
2022-12-18T19:23:16.107Z,0.42
2022-12-18T19:33:43.557Z,0.47
2022-12-18T19:44:08.331Z,0.52
2022-12-18T19:54:30.985Z,0.56
2022-12-18T20:04:52.347Z,0.53
2022-12-18T20:15:13.773Z,0.57
2022-12-18T20:25:35.303Z,0.61
2022-12-18T20:36:01.011Z,0.59
2022-12-18T20:46:24.530Z,0.63
2022-12-18T20:56:46.326Z,0.64
2022-12-18T21:07:07.811Z,0.66
2022-12-18T21:17:29.216Z,0.67
2022-12-18T21:27:51.993Z,0.67
2022-12-18T21:38:14.166Z,0.76
2022-12-18T21:48:38.374Z,0.72
2022-12-18T21:58:59.734Z,0.82
2022-12-18T22:09:22.497Z,0.88
2022-12-18T22:19:43.847Z,0.96
2022-12-18T22:30:05.675Z,0.98
2022-12-18T22:40:27.602Z,1.07
2022-12-18T22:50:49.544Z,1.16
2022-12-18T23:01:20.140Z,1.18
2022-12-18T23:11:41.683Z,1.22
2022-12-18T23:22:07.272Z,1.29
2022-12-18T23:32:31.492Z,1.32
2022-12-18T23:42:54.371Z,1.35
2022-12-18T23:53:15.773Z,1.44
